Accueil
METAR-TAF:

METAR-TAF

Aéroports :

Ankara Esenboğa, Turquie

Aéroport international Esenboğa

latitude: 40-07N, longitude: 032-59E, altitude: 953 m

Observation

Le bulletin a été fait il y a 1 heure et 30 minutes, à 13:20 UTC
Vent 4 kt de direction variable
Température 22°C
Humidité 14%
Pression 1018 hPa
Visibilité 10 km ou plus
pas de nuages en-dessous de 1500 mètres et pas de cumulonimbus.

METAR: LTAC 271320Z VRB04KT CAVOK 22/M07 Q1018 NOSIG RMK RWY21L VRB05KT RWY03L VRB02KT RWY21R 29006KT 250V330

Heure: 17:50 (14:50 UTC)

Prévision

Le bulletin a été fait il y a 4 heures et 10 minutes, à 10:40 UTC
Prévision valable du 27 à 12 UTC au 28 à 12 UTC
Vent 2 kt de direction variable
Visibilité 10 km ou plus
pas de nuages en-dessous de 1500 mètres et pas de cumulonimbus.

TAF: LTAC 271040Z 2712/2812 VRB02KT CAVOK

Observations et prévisions météorologiques de plus de 4000 aéroports (messages METAR et TAF).

Les stations disponibles sont représentées par des disques jaunes et rouges sur la carte.

Passer la souris dessus pour voir le nom de la station.

Cliquer dessus pour voir les observations et prévisions météorologiques.

Pour changer de carte: cliquez sur les boutons verts avec une croix noire pour zoomer, sur le bouton vert avec un tiret pour effectuer un zoom arrière, ou sur les flèches vertes pour les cartes adjacentes.


METAR-TAF: